sensor_id;sensor_type;location;lat;lon;timestamp;temperature;humidity
12959;DHT22;6544;51.666;6.634;2023-08-06T00:02:12;16.70;1.00
12959;DHT22;6544;51.666;6.634;2023-08-06T00:04:39;16.80;1.00
12959;DHT22;6544;51.666;6.634;2023-08-06T00:07:05;16.80;1.00
12959;DHT22;6544;51.666;6.634;2023-08-06T00:09:32;16.80;1.00
12959;DHT22;6544;51.666;6.634;2023-08-06T00:11:59;16.80;1.00
12959;DHT22;6544;51.666;6.634;2023-08-06T00:14:27;16.80;1.00
12959;DHT22;6544;51.666;6.634;2023-08-06T00:16:54;16.80;1.00
12959;DHT22;6544;51.666;6.634;2023-08-06T00:19:21;16.90;1.00
12959;DHT22;6544;51.666;6.634;2023-08-06T00:21:48;16.80;1.00
12959;DHT22;6544;51.666;6.634;2023-08-06T00:24:15;16.80;1.00
12959;DHT22;6544;51.666;6.634;2023-08-06T00:26:45;16.80;1.00
12959;DHT22;6544;51.666;6.634;2023-08-06T00:29:12;16.70;1.00
12959;DHT22;6544;51.666;6.634;2023-08-06T00:34:08;16.70;1.00
12959;DHT22;6544;51.666;6.634;2023-08-06T00:36:35;16.70;1.00
12959;DHT22;6544;51.666;6.634;2023-08-06T00:39:02;16.70;1.00
12959;DHT22;6544;51.666;6.634;2023-08-06T00:41:29;16.60;1.00
12959;DHT22;6544;51.666;6.634;2023-08-06T00:43:56;16.60;11.90
12959;DHT22;6544;51.666;6.634;2023-08-06T00:46:23;16.70;19.50
12959;DHT22;6544;51.666;6.634;2023-08-06T00:48:51;16.60;99.90
12959;DHT22;6544;51.666;6.634;2023-08-06T00:51:20;16.60;99.90
12959;DHT22;6544;51.666;6.634;2023-08-06T00:53:47;16.70;99.90
12959;DHT22;6544;51.666;6.634;2023-08-06T00:56:15;16.70;99.90
12959;DHT22;6544;51.666;6.634;2023-08-06T00:58:42;16.50;99.90
12959;DHT22;6544;51.666;6.634;2023-08-06T01:01:09;16.50;99.90
12959;DHT22;6544;51.666;6.634;2023-08-06T01:03:36;16.50;99.90
12959;DHT22;6544;51.666;6.634;2023-08-06T01:06:03;16.70;99.90
12959;DHT22;6544;51.666;6.634;2023-08-06T01:08:40;16.70;99.90
12959;DHT22;6544;51.666;6.634;2023-08-06T01:11:20;16.70;99.90
12959;DHT22;6544;51.666;6.634;2023-08-06T01:13:53;16.60;99.90
12959;DHT22;6544;51.666;6.634;2023-08-06T01:16:21;16.50;99.90
12959;DHT22;6544;51.666;6.634;2023-08-06T01:18:50;16.60;99.90
12959;DHT22;6544;51.666;6.634;2023-08-06T01:21:18;16.50;99.90
12959;DHT22;6544;51.666;6.634;2023-08-06T01:23:46;16.40;99.90
12959;DHT22;6544;51.666;6.634;2023-08-06T01:26:19;16.50;99.90
12959;DHT22;6544;51.666;6.634;2023-08-06T01:28:54;16.70;99.90
12959;DHT22;6544;51.666;6.634;2023-08-06T01:31:26;16.70;99.90
12959;DHT22;6544;51.666;6.634;2023-08-06T01:33:54;16.80;99.90
12959;DHT22;6544;51.666;6.634;2023-08-06T01:36:24;16.70;56.10
12959;DHT22;6544;51.666;6.634;2023-08-06T01:38:52;16.70;99.90
12959;DHT22;6544;51.666;6.634;2023-08-06T01:41:19;16.70;99.90
12959;DHT22;6544;51.666;6.634;2023-08-06T01:43:46;16.70;99.90
12959;DHT22;6544;51.666;6.634;2023-08-06T01:46:13;16.80;99.90
12959;DHT22;6544;51.666;6.634;2023-08-06T01:48:40;16.70;99.90
12959;DHT22;6544;51.666;6.634;2023-08-06T01:51:07;16.70;99.90
12959;DHT22;6544;51.666;6.634;2023-08-06T01:53:35;16.60;99.90
12959;DHT22;6544;51.666;6.634;2023-08-06T01:56:02;16.40;99.90
12959;DHT22;6544;51.666;6.634;2023-08-06T01:58:29;16.40;99.90
12959;DHT22;6544;51.666;6.634;2023-08-06T02:00:56;16.40;99.90
12959;DHT22;6544;51.666;6.634;2023-08-06T02:03:23;16.50;99.90
12959;DHT22;6544;51.666;6.634;2023-08-06T02:05:50;16.50;99.90
12959;DHT22;6544;51.666;6.634;2023-08-06T02:08:16;16.50;99.90
12959;DHT22;6544;51.666;6.634;2023-08-06T02:10:46;16.50;99.90
12959;DHT22;6544;51.666;6.634;2023-08-06T02:13:13;16.50;99.90
12959;DHT22;6544;51.666;6.634;2023-08-06T02:15:42;16.60;99.90
12959;DHT22;6544;51.666;6.634;2023-08-06T02:18:09;16.70;99.90
12959;DHT22;6544;51.666;6.634;2023-08-06T02:20:36;16.50;99.90
12959;DHT22;6544;51.666;6.634;2023-08-06T02:23:03;16.60;99.90
12959;DHT22;6544;51.666;6.634;2023-08-06T02:25:30;16.50;1.00
12959;DHT22;6544;51.666;6.634;2023-08-06T02:27:58;16.50;99.90
12959;DHT22;6544;51.666;6.634;2023-08-06T02:30:25;16.60;99.90
12959;DHT22;6544;51.666;6.634;2023-08-06T02:32:52;16.60;99.90
12959;DHT22;6544;51.666;6.634;2023-08-06T02:35:19;16.50;99.90
12959;DHT22;6544;51.666;6.634;2023-08-06T02:37:46;16.50;1.00
12959;DHT22;6544;51.666;6.634;2023-08-06T02:40:13;16.50;1.00
12959;DHT22;6544;51.666;6.634;2023-08-06T02:42:40;16.50;99.90
12959;DHT22;6544;51.666;6.634;2023-08-06T02:45:09;16.60;1.00
12959;DHT22;6544;51.666;6.634;2023-08-06T02:47:36;16.60;99.90
12959;DHT22;6544;51.666;6.634;2023-08-06T02:50:03;16.60;99.90
12959;DHT22;6544;51.666;6.634;2023-08-06T02:52:29;16.60;99.90
12959;DHT22;6544;51.666;6.634;2023-08-06T02:54:56;16.70;99.90
12959;DHT22;6544;51.666;6.634;2023-08-06T02:57:26;16.70;99.90
12959;DHT22;6544;51.666;6.634;2023-08-06T02:59:53;16.60;99.90
12959;DHT22;6544;51.666;6.634;2023-08-06T03:02:22;16.60;99.90
12959;DHT22;6544;51.666;6.634;2023-08-06T03:04:51;16.60;99.90
12959;DHT22;6544;51.666;6.634;2023-08-06T03:07:19;16.60;99.90
12959;DHT22;6544;51.666;6.634;2023-08-06T03:09:46;16.70;99.90
12959;DHT22;6544;51.666;6.634;2023-08-06T03:12:13;16.70;99.90
12959;DHT22;6544;51.666;6.634;2023-08-06T03:14:40;16.70;99.90
12959;DHT22;6544;51.666;6.634;2023-08-06T03:17:07;16.70;99.90
12959;DHT22;6544;51.666;6.634;2023-08-06T03:19:35;16.70;99.90
12959;DHT22;6544;51.666;6.634;2023-08-06T03:22:02;16.60;99.90
12959;DHT22;6544;51.666;6.634;2023-08-06T03:24:29;16.70;99.90
12959;DHT22;6544;51.666;6.634;2023-08-06T03:26:56;16.70;99.90
12959;DHT22;6544;51.666;6.634;2023-08-06T03:29:23;16.70;99.90
12959;DHT22;6544;51.666;6.634;2023-08-06T03:31:50;16.70;99.90
12959;DHT22;6544;51.666;6.634;2023-08-06T03:34:18;16.70;99.90
12959;DHT22;6544;51.666;6.634;2023-08-06T03:36:46;16.70;99.90
12959;DHT22;6544;51.666;6.634;2023-08-06T03:39:13;16.60;99.90
12959;DHT22;6544;51.666;6.634;2023-08-06T03:41:41;16.50;99.90
12959;DHT22;6544;51.666;6.634;2023-08-06T03:44:08;16.50;99.90
12959;DHT22;6544;51.666;6.634;2023-08-06T03:46:35;16.50;99.90
12959;DHT22;6544;51.666;6.634;2023-08-06T03:49:02;16.40;1.00
12959;DHT22;6544;51.666;6.634;2023-08-06T03:51:29;16.50;99.90
12959;DHT22;6544;51.666;6.634;2023-08-06T03:53:57;16.50;99.90
12959;DHT22;6544;51.666;6.634;2023-08-06T03:56:24;16.50;99.90
12959;DHT22;6544;51.666;6.634;2023-08-06T03:58:51;16.60;99.90
12959;DHT22;6544;51.666;6.634;2023-08-06T04:01:18;16.60;99.90
12959;DHT22;6544;51.666;6.634;2023-08-06T04:03:45;16.60;99.90
12959;DHT22;6544;51.666;6.634;2023-08-06T04:06:12;16.70;99.90
12959;DHT22;6544;51.666;6.634;2023-08-06T04:08:38;16.60;99.90
12959;DHT22;6544;51.666;6.634;2023-08-06T04:11:07;16.60;99.90
12959;DHT22;6544;51.666;6.634;2023-08-06T04:13:34;16.70;99.90
12959;DHT22;6544;51.666;6.634;2023-08-06T04:16:01;16.70;99.90
12959;DHT22;6544;51.666;6.634;2023-08-06T04:18:28;16.50;99.90
12959;DHT22;6544;51.666;6.634;2023-08-06T04:20:56;16.50;99.90
12959;DHT22;6544;51.666;6.634;2023-08-06T04:23:23;16.40;99.90
12959;DHT22;6544;51.666;6.634;2023-08-06T04:25:50;16.40;99.90
12959;DHT22;6544;51.666;6.634;2023-08-06T04:28:19;16.50;99.90
12959;DHT22;6544;51.666;6.634;2023-08-06T04:30:46;16.40;1.00
12959;DHT22;6544;51.666;6.634;2023-08-06T04:33:13;16.50;99.90
12959;DHT22;6544;51.666;6.634;2023-08-06T04:35:40;16.60;99.90
12959;DHT22;6544;51.666;6.634;2023-08-06T04:38:06;16.70;99.90
12959;DHT22;6544;51.666;6.634;2023-08-06T04:40:34;16.70;99.90
12959;DHT22;6544;51.666;6.634;2023-08-06T04:43:00;16.60;99.90
12959;DHT22;6544;51.666;6.634;2023-08-06T04:45:29;16.70;99.90
12959;DHT22;6544;51.666;6.634;2023-08-06T04:47:55;16.70;99.90
12959;DHT22;6544;51.666;6.634;2023-08-06T04:50:22;16.60;99.90
12959;DHT22;6544;51.666;6.634;2023-08-06T04:52:49;16.60;99.90
12959;DHT22;6544;51.666;6.634;2023-08-06T04:55:16;16.60;99.90
12959;DHT22;6544;51.666;6.634;2023-08-06T04:57:43;16.60;99.90
12959;DHT22;6544;51.666;6.634;2023-08-06T05:00:17;16.60;99.90
12959;DHT22;6544;51.666;6.634;2023-08-06T05:02:45;16.60;99.90
12959;DHT22;6544;51.666;6.634;2023-08-06T05:05:12;16.60;99.90
12959;DHT22;6544;51.666;6.634;2023-08-06T05:07:39;16.60;99.90
12959;DHT22;6544;51.666;6.634;2023-08-06T05:10:06;16.60;99.90
12959;DHT22;6544;51.666;6.634;2023-08-06T05:12:33;16.60;99.90
12959;DHT22;6544;51.666;6.634;2023-08-06T05:15:01;16.60;99.90
12959;DHT22;6544;51.666;6.634;2023-08-06T05:17:27;16.70;99.90
12959;DHT22;6544;51.666;6.634;2023-08-06T05:19:56;16.70;99.90
12959;DHT22;6544;51.666;6.634;2023-08-06T05:22:24;16.60;99.90
12959;DHT22;6544;51.666;6.634;2023-08-06T05:24:51;16.50;99.90
12959;DHT22;6544;51.666;6.634;2023-08-06T05:27:18;16.50;99.90
12959;DHT22;6544;51.666;6.634;2023-08-06T05:29:45;16.40;99.90
12959;DHT22;6544;51.666;6.634;2023-08-06T05:32:12;16.50;99.90
12959;DHT22;6544;51.666;6.634;2023-08-06T05:34:39;16.50;99.90
12959;DHT22;6544;51.666;6.634;2023-08-06T05:37:08;16.60;99.90
12959;DHT22;6544;51.666;6.634;2023-08-06T05:39:35;16.50;99.90
12959;DHT22;6544;51.666;6.634;2023-08-06T05:42:02;16.50;99.90
12959;DHT22;6544;51.666;6.634;2023-08-06T05:44:29;16.60;99.90
12959;DHT22;6544;51.666;6.634;2023-08-06T05:46:56;16.60;99.90
12959;DHT22;6544;51.666;6.634;2023-08-06T05:49:23;16.60;1.00
12959;DHT22;6544;51.666;6.634;2023-08-06T05:51:50;16.60;99.90
12959;DHT22;6544;51.666;6.634;2023-08-06T05:54:20;16.50;1.00
12959;DHT22;6544;51.666;6.634;2023-08-06T05:56:47;16.50;1.00
12959;DHT22;6544;51.666;6.634;2023-08-06T05:59:14;16.70;1.00
12959;DHT22;6544;51.666;6.634;2023-08-06T06:01:41;16.70;1.00
12959;DHT22;6544;51.666;6.634;2023-08-06T06:04:08;16.80;99.90
12959;DHT22;6544;51.666;6.634;2023-08-06T06:06:35;16.80;99.90
12959;DHT22;6544;51.666;6.634;2023-08-06T06:09:02;16.90;99.90
12959;DHT22;6544;51.666;6.634;2023-08-06T06:11:30;16.90;99.90
12959;DHT22;6544;51.666;6.634;2023-08-06T06:13:57;17.00;99.90
12959;DHT22;6544;51.666;6.634;2023-08-06T06:16:23;17.00;99.90
12959;DHT22;6544;51.666;6.634;2023-08-06T06:18:51;17.00;99.90
12959;DHT22;6544;51.666;6.634;2023-08-06T06:21:18;17.10;72.90
12959;DHT22;6544;51.666;6.634;2023-08-06T06:23:44;17.10;99.90
12959;DHT22;6544;51.666;6.634;2023-08-06T06:26:11;17.10;52.50
12959;DHT22;6544;51.666;6.634;2023-08-06T06:28:40;17.10;66.40
12959;DHT22;6544;51.666;6.634;2023-08-06T06:31:07;17.20;48.80
12959;DHT22;6544;51.666;6.634;2023-08-06T06:33:34;17.10;48.40
12959;DHT22;6544;51.666;6.634;2023-08-06T06:36:02;17.10;99.90
12959;DHT22;6544;51.666;6.634;2023-08-06T06:38:29;17.20;99.90
12959;DHT22;6544;51.666;6.634;2023-08-06T06:40:57;17.30;99.90
12959;DHT22;6544;51.666;6.634;2023-08-06T06:43:24;17.20;86.70
12959;DHT22;6544;51.666;6.634;2023-08-06T06:45:55;17.20;99.90
12959;DHT22;6544;51.666;6.634;2023-08-06T06:48:22;17.30;99.90
12959;DHT22;6544;51.666;6.634;2023-08-06T06:50:49;17.30;99.90
12959;DHT22;6544;51.666;6.634;2023-08-06T06:53:16;17.40;1.00
12959;DHT22;6544;51.666;6.634;2023-08-06T06:55:43;17.40;1.00
12959;DHT22;6544;51.666;6.634;2023-08-06T06:58:10;17.40;1.00
12959;DHT22;6544;51.666;6.634;2023-08-06T07:00:37;17.50;1.00
12959;DHT22;6544;51.666;6.634;2023-08-06T07:03:05;17.50;1.00
12959;DHT22;6544;51.666;6.634;2023-08-06T07:05:32;17.60;1.00
12959;DHT22;6544;51.666;6.634;2023-08-06T07:07:59;17.30;1.00
12959;DHT22;6544;51.666;6.634;2023-08-06T07:10:29;17.30;1.00
12959;DHT22;6544;51.666;6.634;2023-08-06T07:12:56;17.10;1.00
12959;DHT22;6544;51.666;6.634;2023-08-06T07:15:23;17.20;1.00
12959;DHT22;6544;51.666;6.634;2023-08-06T07:17:50;17.40;1.00
12959;DHT22;6544;51.666;6.634;2023-08-06T07:20:18;17.50;1.00
12959;DHT22;6544;51.666;6.634;2023-08-06T07:22:45;17.30;1.00
12959;DHT22;6544;51.666;6.634;2023-08-06T07:25:12;17.20;1.00
12959;DHT22;6544;51.666;6.634;2023-08-06T07:27:39;17.00;1.00
12959;DHT22;6544;51.666;6.634;2023-08-06T07:30:06;17.00;99.90
12959;DHT22;6544;51.666;6.634;2023-08-06T07:32:33;17.10;99.90
12959;DHT22;6544;51.666;6.634;2023-08-06T07:37:44;17.20;99.90
12959;DHT22;6544;51.666;6.634;2023-08-06T07:40:11;17.10;1.00
12959;DHT22;6544;51.666;6.634;2023-08-06T07:42:39;16.90;1.00
12959;DHT22;6544;51.666;6.634;2023-08-06T07:45:07;17.00;99.90
12959;DHT22;6544;51.666;6.634;2023-08-06T07:47:38;16.90;1.00
12959;DHT22;6544;51.666;6.634;2023-08-06T07:50:05;17.00;1.00
12959;DHT22;6544;51.666;6.634;2023-08-06T07:52:33;17.00;1.00
12959;DHT22;6544;51.666;6.634;2023-08-06T07:57:46;17.00;1.00
12959;DHT22;6544;51.666;6.634;2023-08-06T08:00:12;17.10;1.00
12959;DHT22;6544;51.666;6.634;2023-08-06T08:02:39;17.00;1.00
12959;DHT22;6544;51.666;6.634;2023-08-06T08:05:07;17.10;1.00
12959;DHT22;6544;51.666;6.634;2023-08-06T08:07:34;17.10;1.00
12959;DHT22;6544;51.666;6.634;2023-08-06T08:10:02;17.10;1.00
12959;DHT22;6544;51.666;6.634;2023-08-06T08:12:30;17.10;1.00
12959;DHT22;6544;51.666;6.634;2023-08-06T08:14:57;17.00;1.00
12959;DHT22;6544;51.666;6.634;2023-08-06T08:17:24;17.20;1.00
12959;DHT22;6544;51.666;6.634;2023-08-06T08:19:51;17.20;1.00
12959;DHT22;6544;51.666;6.634;2023-08-06T08:22:18;17.20;1.00
12959;DHT22;6544;51.666;6.634;2023-08-06T08:24:47;17.20;99.90
12959;DHT22;6544;51.666;6.634;2023-08-06T08:27:16;17.30;99.90
12959;DHT22;6544;51.666;6.634;2023-08-06T08:29:43;17.40;1.00
12959;DHT22;6544;51.666;6.634;2023-08-06T08:32:10;17.50;1.00
12959;DHT22;6544;51.666;6.634;2023-08-06T08:34:36;17.50;1.00
12959;DHT22;6544;51.666;6.634;2023-08-06T08:37:03;17.50;1.00
12959;DHT22;6544;51.666;6.634;2023-08-06T08:39:31;17.40;1.00
12959;DHT22;6544;51.666;6.634;2023-08-06T08:41:58;17.40;1.00
12959;DHT22;6544;51.666;6.634;2023-08-06T08:44:28;17.40;1.00
12959;DHT22;6544;51.666;6.634;2023-08-06T08:46:55;17.40;1.00
12959;DHT22;6544;51.666;6.634;2023-08-06T08:49:24;17.30;1.00
12959;DHT22;6544;51.666;6.634;2023-08-06T08:51:53;17.40;1.00
12959;DHT22;6544;51.666;6.634;2023-08-06T08:54:23;17.30;1.00
12959;DHT22;6544;51.666;6.634;2023-08-06T08:56:50;17.40;1.00
12959;DHT22;6544;51.666;6.634;2023-08-06T08:59:17;17.40;1.00
12959;DHT22;6544;51.666;6.634;2023-08-06T09:01:46;17.50;1.00
12959;DHT22;6544;51.666;6.634;2023-08-06T09:04:17;17.40;1.00
12959;DHT22;6544;51.666;6.634;2023-08-06T09:06:47;17.30;1.00
12959;DHT22;6544;51.666;6.634;2023-08-06T09:09:21;17.20;1.00
12959;DHT22;6544;51.666;6.634;2023-08-06T09:11:49;17.20;1.00
12959;DHT22;6544;51.666;6.634;2023-08-06T09:14:16;17.30;99.90
12959;DHT22;6544;51.666;6.634;2023-08-06T09:16:44;17.30;99.90
12959;DHT22;6544;51.666;6.634;2023-08-06T09:19:13;17.20;1.00
12959;DHT22;6544;51.666;6.634;2023-08-06T09:21:41;17.30;80.10
12959;DHT22;6544;51.666;6.634;2023-08-06T09:24:09;17.40;99.90
12959;DHT22;6544;51.666;6.634;2023-08-06T09:26:37;17.40;35.70
12959;DHT22;6544;51.666;6.634;2023-08-06T09:29:05;17.40;76.00
12959;DHT22;6544;51.666;6.634;2023-08-06T09:31:34;17.40;99.90
12959;DHT22;6544;51.666;6.634;2023-08-06T09:34:10;17.40;24.40
12959;DHT22;6544;51.666;6.634;2023-08-06T09:36:40;17.40;86.90
12959;DHT22;6544;51.666;6.634;2023-08-06T09:39:13;17.40;62.80
12959;DHT22;6544;51.666;6.634;2023-08-06T09:41:40;17.50;1.00
12959;DHT22;6544;51.666;6.634;2023-08-06T09:44:15;17.50;1.00
12959;DHT22;6544;51.666;6.634;2023-08-06T09:46:43;17.50;1.00
12959;DHT22;6544;51.666;6.634;2023-08-06T09:49:14;17.50;1.00
12959;DHT22;6544;51.666;6.634;2023-08-06T09:51:42;17.50;1.00
12959;DHT22;6544;51.666;6.634;2023-08-06T09:54:12;17.60;1.00
12959;DHT22;6544;51.666;6.634;2023-08-06T09:56:39;17.70;1.00
12959;DHT22;6544;51.666;6.634;2023-08-06T09:59:07;17.70;1.00
12959;DHT22;6544;51.666;6.634;2023-08-06T10:01:35;17.80;1.00
12959;DHT22;6544;51.666;6.634;2023-08-06T10:04:03;17.80;1.00
12959;DHT22;6544;51.666;6.634;2023-08-06T10:06:34;17.90;1.00
12959;DHT22;6544;51.666;6.634;2023-08-06T10:09:01;17.90;1.00
12959;DHT22;6544;51.666;6.634;2023-08-06T10:11:29;18.10;1.00
12959;DHT22;6544;51.666;6.634;2023-08-06T10:14:00;18.10;1.00
12959;DHT22;6544;51.666;6.634;2023-08-06T10:16:29;17.90;1.00
12959;DHT22;6544;51.666;6.634;2023-08-06T10:18:57;17.90;1.00
12959;DHT22;6544;51.666;6.634;2023-08-06T10:21:24;17.90;1.00
12959;DHT22;6544;51.666;6.634;2023-08-06T10:23:55;18.00;99.90
12959;DHT22;6544;51.666;6.634;2023-08-06T10:26:25;18.10;99.90
12959;DHT22;6544;51.666;6.634;2023-08-06T10:28:53;18.10;99.90
12959;DHT22;6544;51.666;6.634;2023-08-06T10:31:20;18.10;99.90
12959;DHT22;6544;51.666;6.634;2023-08-06T10:34:07;18.20;99.90
12959;DHT22;6544;51.666;6.634;2023-08-06T10:36:34;18.30;99.90
12959;DHT22;6544;51.666;6.634;2023-08-06T10:39:02;18.40;99.90
12959;DHT22;6544;51.666;6.634;2023-08-06T10:41:29;18.50;99.90
12959;DHT22;6544;51.666;6.634;2023-08-06T10:44:05;18.50;99.90
12959;DHT22;6544;51.666;6.634;2023-08-06T10:46:33;18.40;99.90
12959;DHT22;6544;51.666;6.634;2023-08-06T10:49:01;18.50;99.90
12959;DHT22;6544;51.666;6.634;2023-08-06T10:51:31;18.40;99.90
12959;DHT22;6544;51.666;6.634;2023-08-06T10:53:57;18.40;99.90
12959;DHT22;6544;51.666;6.634;2023-08-06T10:56:26;18.30;99.90
12959;DHT22;6544;51.666;6.634;2023-08-06T10:58:56;18.30;99.90
12959;DHT22;6544;51.666;6.634;2023-08-06T11:01:24;18.30;99.90
12959;DHT22;6544;51.666;6.634;2023-08-06T11:03:57;18.50;99.90
12959;DHT22;6544;51.666;6.634;2023-08-06T11:06:30;18.30;99.90
12959;DHT22;6544;51.666;6.634;2023-08-06T11:08:57;18.10;99.90
12959;DHT22;6544;51.666;6.634;2023-08-06T11:11:30;18.30;99.90
12959;DHT22;6544;51.666;6.634;2023-08-06T11:13:57;18.60;99.90
12959;DHT22;6544;51.666;6.634;2023-08-06T11:16:24;18.70;99.90
12959;DHT22;6544;51.666;6.634;2023-08-06T11:18:51;18.20;99.90
12959;DHT22;6544;51.666;6.634;2023-08-06T11:21:19;18.10;1.00
12959;DHT22;6544;51.666;6.634;2023-08-06T11:23:50;17.90;1.00
12959;DHT22;6544;51.666;6.634;2023-08-06T11:26:19;17.90;1.00
12959;DHT22;6544;51.666;6.634;2023-08-06T11:28:47;17.90;1.00
12959;DHT22;6544;51.666;6.634;2023-08-06T11:31:21;18.10;1.00
12959;DHT22;6544;51.666;6.634;2023-08-06T11:33:49;17.90;1.00
12959;DHT22;6544;51.666;6.634;2023-08-06T11:36:16;17.70;1.00
12959;DHT22;6544;51.666;6.634;2023-08-06T11:38:54;17.80;1.00
12959;DHT22;6544;51.666;6.634;2023-08-06T11:41:22;17.40;1.00
12959;DHT22;6544;51.666;6.634;2023-08-06T11:43:50;17.40;1.00
12959;DHT22;6544;51.666;6.634;2023-08-06T11:46:18;17.40;1.00
12959;DHT22;6544;51.666;6.634;2023-08-06T11:48:51;17.00;1.00
12959;DHT22;6544;51.666;6.634;2023-08-06T11:51:18;16.80;1.00
12959;DHT22;6544;51.666;6.634;2023-08-06T11:53:48;16.30;1.00
12959;DHT22;6544;51.666;6.634;2023-08-06T11:56:15;16.40;1.00
12959;DHT22;6544;51.666;6.634;2023-08-06T11:58:43;16.30;1.00
12959;DHT22;6544;51.666;6.634;2023-08-06T12:01:12;16.00;99.90
12959;DHT22;6544;51.666;6.634;2023-08-06T12:03:40;15.70;99.90
12959;DHT22;6544;51.666;6.634;2023-08-06T12:06:07;15.80;99.90
12959;DHT22;6544;51.666;6.634;2023-08-06T12:08:34;15.90;1.00
12959;DHT22;6544;51.666;6.634;2023-08-06T12:11:01;15.80;1.00
12959;DHT22;6544;51.666;6.634;2023-08-06T12:13:28;15.70;1.00
12959;DHT22;6544;51.666;6.634;2023-08-06T12:15:55;15.60;1.00
12959;DHT22;6544;51.666;6.634;2023-08-06T12:18:24;15.80;25.30
12959;DHT22;6544;51.666;6.634;2023-08-06T12:20:51;15.80;1.00
12959;DHT22;6544;51.666;6.634;2023-08-06T12:23:18;15.70;99.90
12959;DHT22;6544;51.666;6.634;2023-08-06T12:25:45;15.20;1.00
12959;DHT22;6544;51.666;6.634;2023-08-06T12:28:12;15.40;1.00
12959;DHT22;6544;51.666;6.634;2023-08-06T12:30:39;15.40;1.00
12959;DHT22;6544;51.666;6.634;2023-08-06T12:33:08;15.50;1.00
12959;DHT22;6544;51.666;6.634;2023-08-06T12:35:36;15.60;1.00
12959;DHT22;6544;51.666;6.634;2023-08-06T12:38:04;15.40;1.00
12959;DHT22;6544;51.666;6.634;2023-08-06T12:40:31;15.40;1.00
12959;DHT22;6544;51.666;6.634;2023-08-06T12:42:58;15.40;99.90
12959;DHT22;6544;51.666;6.634;2023-08-06T12:45:25;15.50;1.00
12959;DHT22;6544;51.666;6.634;2023-08-06T12:47:52;15.40;1.00
12959;DHT22;6544;51.666;6.634;2023-08-06T12:50:19;15.40;99.90
12959;DHT22;6544;51.666;6.634;2023-08-06T12:52:47;15.50;1.00
12959;DHT22;6544;51.666;6.634;2023-08-06T12:55:14;15.50;1.00
12959;DHT22;6544;51.666;6.634;2023-08-06T12:57:41;15.40;1.00
12959;DHT22;6544;51.666;6.634;2023-08-06T13:00:09;15.60;1.00
12959;DHT22;6544;51.666;6.634;2023-08-06T13:02:36;15.60;1.00
12959;DHT22;6544;51.666;6.634;2023-08-06T13:05:03;15.40;1.00
12959;DHT22;6544;51.666;6.634;2023-08-06T13:07:31;15.50;1.00
12959;DHT22;6544;51.666;6.634;2023-08-06T13:10:00;15.40;1.00
12959;DHT22;6544;51.666;6.634;2023-08-06T13:12:26;15.40;1.00
12959;DHT22;6544;51.666;6.634;2023-08-06T13:14:54;15.50;63.00
12959;DHT22;6544;51.666;6.634;2023-08-06T13:17:23;15.50;86.50
12959;DHT22;6544;51.666;6.634;2023-08-06T13:19:50;15.50;99.90
12959;DHT22;6544;51.666;6.634;2023-08-06T13:22:17;15.40;94.60
12959;DHT22;6544;51.666;6.634;2023-08-06T13:24:44;15.40;96.10
12959;DHT22;6544;51.666;6.634;2023-08-06T13:27:12;15.40;99.90
12959;DHT22;6544;51.666;6.634;2023-08-06T13:29:39;15.40;92.00
12959;DHT22;6544;51.666;6.634;2023-08-06T13:32:07;15.40;95.10
12959;DHT22;6544;51.666;6.634;2023-08-06T13:34:34;15.30;16.10
12959;DHT22;6544;51.666;6.634;2023-08-06T13:37:01;15.40;40.00
12959;DHT22;6544;51.666;6.634;2023-08-06T13:39:28;15.50;98.90
12959;DHT22;6544;51.666;6.634;2023-08-06T13:41:56;15.60;1.00
12959;DHT22;6544;51.666;6.634;2023-08-06T13:44:25;15.60;1.00
12959;DHT22;6544;51.666;6.634;2023-08-06T13:46:52;15.60;99.90
12959;DHT22;6544;51.666;6.634;2023-08-06T13:49:19;15.70;99.90
12959;DHT22;6544;51.666;6.634;2023-08-06T13:51:46;15.70;99.90
12959;DHT22;6544;51.666;6.634;2023-08-06T13:54:13;15.70;99.90
12959;DHT22;6544;51.666;6.634;2023-08-06T13:56:40;15.70;82.10
12959;DHT22;6544;51.666;6.634;2023-08-06T13:59:06;15.60;99.90
12959;DHT22;6544;51.666;6.634;2023-08-06T14:01:35;15.60;99.90
12959;DHT22;6544;51.666;6.634;2023-08-06T14:04:05;15.60;14.70
12959;DHT22;6544;51.666;6.634;2023-08-06T14:06:32;15.60;1.00
12959;DHT22;6544;51.666;6.634;2023-08-06T14:08:59;15.60;1.00
12959;DHT22;6544;51.666;6.634;2023-08-06T14:11:26;15.50;99.90
12959;DHT22;6544;51.666;6.634;2023-08-06T14:13:53;15.50;1.00
12959;DHT22;6544;51.666;6.634;2023-08-06T14:16:19;15.40;99.90
12959;DHT22;6544;51.666;6.634;2023-08-06T14:18:48;15.40;99.90
12959;DHT22;6544;51.666;6.634;2023-08-06T14:21:15;15.50;99.90
12959;DHT22;6544;51.666;6.634;2023-08-06T14:23:42;15.40;1.00
12959;DHT22;6544;51.666;6.634;2023-08-06T14:26:09;15.50;1.00
12959;DHT22;6544;51.666;6.634;2023-08-06T14:28:36;15.50;1.00
12959;DHT22;6544;51.666;6.634;2023-08-06T14:31:03;15.50;1.00
12959;DHT22;6544;51.666;6.634;2023-08-06T14:33:30;15.50;99.90
12959;DHT22;6544;51.666;6.634;2023-08-06T14:35:58;15.40;99.90
12959;DHT22;6544;51.666;6.634;2023-08-06T14:38:25;15.40;1.00
12959;DHT22;6544;51.666;6.634;2023-08-06T14:40:52;15.40;1.00
12959;DHT22;6544;51.666;6.634;2023-08-06T14:43:19;15.40;99.90
12959;DHT22;6544;51.666;6.634;2023-08-06T14:45:47;15.50;99.90
12959;DHT22;6544;51.666;6.634;2023-08-06T14:48:14;15.60;1.00
12959;DHT22;6544;51.666;6.634;2023-08-06T14:50:43;15.70;99.90
12959;DHT22;6544;51.666;6.634;2023-08-06T14:53:11;15.70;1.00
12959;DHT22;6544;51.666;6.634;2023-08-06T14:55:38;15.70;4.10
12959;DHT22;6544;51.666;6.634;2023-08-06T14:58:07;15.70;99.90
12959;DHT22;6544;51.666;6.634;2023-08-06T15:00:34;15.90;99.90
12959;DHT22;6544;51.666;6.634;2023-08-06T15:03:01;15.90;99.90
12959;DHT22;6544;51.666;6.634;2023-08-06T15:05:29;16.10;99.90
12959;DHT22;6544;51.666;6.634;2023-08-06T15:07:55;16.10;1.00
12959;DHT22;6544;51.666;6.634;2023-08-06T15:10:24;16.00;1.00
12959;DHT22;6544;51.666;6.634;2023-08-06T15:12:51;16.00;1.00
12959;DHT22;6544;51.666;6.634;2023-08-06T15:15:18;16.10;1.00
12959;DHT22;6544;51.666;6.634;2023-08-06T15:17:45;16.10;1.00
12959;DHT22;6544;51.666;6.634;2023-08-06T15:20:12;16.00;99.90
12959;DHT22;6544;51.666;6.634;2023-08-06T15:22:39;15.90;1.00
12959;DHT22;6544;51.666;6.634;2023-08-06T15:25:06;15.90;1.00
12959;DHT22;6544;51.666;6.634;2023-08-06T15:27:35;15.90;1.00
12959;DHT22;6544;51.666;6.634;2023-08-06T15:30:02;15.80;1.00
12959;DHT22;6544;51.666;6.634;2023-08-06T15:32:29;15.80;99.90
12959;DHT22;6544;51.666;6.634;2023-08-06T15:34:56;15.80;1.00
12959;DHT22;6544;51.666;6.634;2023-08-06T15:37:25;15.80;99.90
12959;DHT22;6544;51.666;6.634;2023-08-06T15:39:53;15.70;99.90
12959;DHT22;6544;51.666;6.634;2023-08-06T15:42:20;15.70;1.00
12959;DHT22;6544;51.666;6.634;2023-08-06T15:44:48;15.70;1.00
12959;DHT22;6544;51.666;6.634;2023-08-06T15:47:15;15.80;86.60
12959;DHT22;6544;51.666;6.634;2023-08-06T15:49:43;15.70;1.00
12959;DHT22;6544;51.666;6.634;2023-08-06T15:52:10;15.70;1.00
12959;DHT22;6544;51.666;6.634;2023-08-06T15:54:37;15.70;95.50
12959;DHT22;6544;51.666;6.634;2023-08-06T15:57:05;15.60;1.00
12959;DHT22;6544;51.666;6.634;2023-08-06T15:59:32;15.60;1.00
12959;DHT22;6544;51.666;6.634;2023-08-06T16:02:01;15.60;1.00
12959;DHT22;6544;51.666;6.634;2023-08-06T16:04:30;15.60;1.00